sensor_id;sensor_type;location;lat;lon;timestamp;temperature;humidity
64634;DHT22;51043;52.406;9.690;2023-04-03T00:01:19;0.20;99.90
64634;DHT22;51043;52.406;9.690;2023-04-03T00:03:46;0.10;99.90
64634;DHT22;51043;52.406;9.690;2023-04-03T00:06:13;0.10;99.90
64634;DHT22;51043;52.406;9.690;2023-04-03T00:08:40;0.10;99.90
64634;DHT22;51043;52.406;9.690;2023-04-03T00:11:07;0.00;99.90
64634;DHT22;51043;52.406;9.690;2023-04-03T00:13:34;0.10;99.90
64634;DHT22;51043;52.406;9.690;2023-04-03T00:16:01;0.10;99.90
64634;DHT22;51043;52.406;9.690;2023-04-03T00:18:29;0.10;99.90
64634;DHT22;51043;52.406;9.690;2023-04-03T00:20:56;0.00;99.90
64634;DHT22;51043;52.406;9.690;2023-04-03T00:23:23;0.00;99.90
64634;DHT22;51043;52.406;9.690;2023-04-03T00:25:51;0.00;99.90
64634;DHT22;51043;52.406;9.690;2023-04-03T00:28:18;-0.10;99.90
64634;DHT22;51043;52.406;9.690;2023-04-03T00:30:45;-0.10;99.90
64634;DHT22;51043;52.406;9.690;2023-04-03T00:33:13;-0.20;99.90
64634;DHT22;51043;52.406;9.690;2023-04-03T00:35:40;-0.20;99.90
64634;DHT22;51043;52.406;9.690;2023-04-03T00:38:07;-0.30;99.90
64634;DHT22;51043;52.406;9.690;2023-04-03T00:40:37;-0.40;99.90
64634;DHT22;51043;52.406;9.690;2023-04-03T00:43:17;-0.50;99.90
64634;DHT22;51043;52.406;9.690;2023-04-03T00:45:46;-0.50;99.90
64634;DHT22;51043;52.406;9.690;2023-04-03T00:48:18;-0.60;99.90
64634;DHT22;51043;52.406;9.690;2023-04-03T00:50:47;-0.70;99.90
64634;DHT22;51043;52.406;9.690;2023-04-03T00:53:28;-0.80;99.90
64634;DHT22;51043;52.406;9.690;2023-04-03T00:55:57;-0.80;99.90
64634;DHT22;51043;52.406;9.690;2023-04-03T00:58:34;-0.90;99.90
64634;DHT22;51043;52.406;9.690;2023-04-03T01:01:06;-0.80;99.90
64634;DHT22;51043;52.406;9.690;2023-04-03T01:03:34;-0.90;99.90
64634;DHT22;51043;52.406;9.690;2023-04-03T01:06:03;-0.90;99.90
64634;DHT22;51043;52.406;9.690;2023-04-03T01:08:30;-0.80;99.90
64634;DHT22;51043;52.406;9.690;2023-04-03T01:10:57;-0.90;99.90
64634;DHT22;51043;52.406;9.690;2023-04-03T01:13:31;-0.90;99.90
64634;DHT22;51043;52.406;9.690;2023-04-03T01:16:03;-0.90;99.90
64634;DHT22;51043;52.406;9.690;2023-04-03T01:18:32;-0.90;99.90
64634;DHT22;51043;52.406;9.690;2023-04-03T01:26:24;-0.90;99.90
64634;DHT22;51043;52.406;9.690;2023-04-03T01:28:54;-0.80;99.90
64634;DHT22;51043;52.406;9.690;2023-04-03T01:33:59;-0.90;99.90
64634;DHT22;51043;52.406;9.690;2023-04-03T01:36:29;-1.00;99.90
64634;DHT22;51043;52.406;9.690;2023-04-03T01:38:58;-1.00;99.90
64634;DHT22;51043;52.406;9.690;2023-04-03T01:41:26;-1.10;99.90
64634;DHT22;51043;52.406;9.690;2023-04-03T01:43:59;-1.10;99.90
64634;DHT22;51043;52.406;9.690;2023-04-03T01:46:26;-1.20;99.90
64634;DHT22;51043;52.406;9.690;2023-04-03T01:48:53;-1.30;99.90
64634;DHT22;51043;52.406;9.690;2023-04-03T01:51:20;-1.40;99.90
64634;DHT22;51043;52.406;9.690;2023-04-03T01:53:48;-1.40;99.90
64634;DHT22;51043;52.406;9.690;2023-04-03T01:56:15;-1.40;99.90
64634;DHT22;51043;52.406;9.690;2023-04-03T01:58:42;-1.40;99.90
64634;DHT22;51043;52.406;9.690;2023-04-03T02:01:09;-1.50;99.90
64634;DHT22;51043;52.406;9.690;2023-04-03T02:03:36;-1.60;99.90
64634;DHT22;51043;52.406;9.690;2023-04-03T02:06:11;-1.60;99.90
64634;DHT22;51043;52.406;9.690;2023-04-03T02:08:38;-1.70;99.90
64634;DHT22;51043;52.406;9.690;2023-04-03T02:11:05;-1.80;99.90
64634;DHT22;51043;52.406;9.690;2023-04-03T02:13:32;-1.80;99.90
64634;DHT22;51043;52.406;9.690;2023-04-03T02:16:05;-1.80;99.90
64634;DHT22;51043;52.406;9.690;2023-04-03T02:18:32;-1.80;99.90
64634;DHT22;51043;52.406;9.690;2023-04-03T02:20:58;-1.80;99.90
64634;DHT22;51043;52.406;9.690;2023-04-03T02:23:25;-1.80;99.90
64634;DHT22;51043;52.406;9.690;2023-04-03T02:25:52;-1.90;99.90
64634;DHT22;51043;52.406;9.690;2023-04-03T02:28:21;-1.90;99.90
64634;DHT22;51043;52.406;9.690;2023-04-03T02:30:48;-1.90;99.90
64634;DHT22;51043;52.406;9.690;2023-04-03T02:33:15;-1.90;99.90
64634;DHT22;51043;52.406;9.690;2023-04-03T02:35:42;-1.90;99.90
64634;DHT22;51043;52.406;9.690;2023-04-03T02:38:09;-1.80;99.90
64634;DHT22;51043;52.406;9.690;2023-04-03T02:40:37;-1.80;99.90
64634;DHT22;51043;52.406;9.690;2023-04-03T02:43:04;-1.80;99.90
64634;DHT22;51043;52.406;9.690;2023-04-03T02:45:31;-1.80;99.90
64634;DHT22;51043;52.406;9.690;2023-04-03T02:47:58;-1.80;99.90
64634;DHT22;51043;52.406;9.690;2023-04-03T02:50:25;-1.70;99.90
64634;DHT22;51043;52.406;9.690;2023-04-03T02:52:52;-1.70;99.90
64634;DHT22;51043;52.406;9.690;2023-04-03T02:55:19;-1.70;99.90
64634;DHT22;51043;52.406;9.690;2023-04-03T02:57:48;-1.70;99.90
64634;DHT22;51043;52.406;9.690;2023-04-03T03:00:16;-1.50;99.90
64634;DHT22;51043;52.406;9.690;2023-04-03T03:02:43;-1.70;99.90
64634;DHT22;51043;52.406;9.690;2023-04-03T03:05:09;-1.60;99.90
64634;DHT22;51043;52.406;9.690;2023-04-03T03:07:36;-1.70;99.90
64634;DHT22;51043;52.406;9.690;2023-04-03T03:10:03;-1.70;99.90
64634;DHT22;51043;52.406;9.690;2023-04-03T03:12:30;-1.70;99.90
64634;DHT22;51043;52.406;9.690;2023-04-03T03:14:58;-1.80;99.90
64634;DHT22;51043;52.406;9.690;2023-04-03T03:17:24;-1.80;99.90
64634;DHT22;51043;52.406;9.690;2023-04-03T03:19:51;-1.70;99.90
64634;DHT22;51043;52.406;9.690;2023-04-03T03:22:19;-1.70;99.90
64634;DHT22;51043;52.406;9.690;2023-04-03T03:24:46;-1.80;99.90
64634;DHT22;51043;52.406;9.690;2023-04-03T03:27:13;-1.80;99.90
64634;DHT22;51043;52.406;9.690;2023-04-03T03:29:43;-1.70;99.90
64634;DHT22;51043;52.406;9.690;2023-04-03T03:32:10;-1.70;99.90
64634;DHT22;51043;52.406;9.690;2023-04-03T03:34:37;-1.80;99.90
64634;DHT22;51043;52.406;9.690;2023-04-03T03:37:04;-1.80;99.90
64634;DHT22;51043;52.406;9.690;2023-04-03T03:39:31;-1.70;99.90
64634;DHT22;51043;52.406;9.690;2023-04-03T03:41:57;-1.70;99.90
64634;DHT22;51043;52.406;9.690;2023-04-03T03:44:24;-1.80;99.90
64634;DHT22;51043;52.406;9.690;2023-04-03T03:46:52;-1.80;99.90
64634;DHT22;51043;52.406;9.690;2023-04-03T03:49:19;-1.80;99.90
64634;DHT22;51043;52.406;9.690;2023-04-03T03:51:47;-1.90;99.90
64634;DHT22;51043;52.406;9.690;2023-04-03T03:54:14;-1.90;99.90
64634;DHT22;51043;52.406;9.690;2023-04-03T03:56:40;-2.00;99.90
64634;DHT22;51043;52.406;9.690;2023-04-03T03:59:07;-2.00;99.90
64634;DHT22;51043;52.406;9.690;2023-04-03T04:01:34;-2.00;99.90
64634;DHT22;51043;52.406;9.690;2023-04-03T04:04:01;-2.10;99.90
64634;DHT22;51043;52.406;9.690;2023-04-03T04:06:30;-2.10;99.90
64634;DHT22;51043;52.406;9.690;2023-04-03T04:09:01;-2.10;99.90
64634;DHT22;51043;52.406;9.690;2023-04-03T04:11:29;-2.10;99.90
64634;DHT22;51043;52.406;9.690;2023-04-03T04:13:56;-2.10;99.90
64634;DHT22;51043;52.406;9.690;2023-04-03T04:16:25;-2.20;99.90
64634;DHT22;51043;52.406;9.690;2023-04-03T04:18:53;-2.20;99.90
64634;DHT22;51043;52.406;9.690;2023-04-03T04:21:20;-2.10;99.90
64634;DHT22;51043;52.406;9.690;2023-04-03T04:23:49;-2.20;99.90
64634;DHT22;51043;52.406;9.690;2023-04-03T04:26:16;-2.20;99.90
64634;DHT22;51043;52.406;9.690;2023-04-03T04:28:43;-2.20;99.90
64634;DHT22;51043;52.406;9.690;2023-04-03T04:31:10;-2.30;99.90
64634;DHT22;51043;52.406;9.690;2023-04-03T04:33:37;-2.30;99.90
64634;DHT22;51043;52.406;9.690;2023-04-03T04:36:06;-2.40;99.90
64634;DHT22;51043;52.406;9.690;2023-04-03T04:38:33;-2.40;99.90
64634;DHT22;51043;52.406;9.690;2023-04-03T04:41:00;-2.40;99.90
64634;DHT22;51043;52.406;9.690;2023-04-03T04:43:27;-2.40;99.90
64634;DHT22;51043;52.406;9.690;2023-04-03T04:46:21;-2.40;99.90
64634;DHT22;51043;52.406;9.690;2023-04-03T04:48:53;-2.40;99.90
64634;DHT22;51043;52.406;9.690;2023-04-03T04:51:21;-2.50;99.90
64634;DHT22;51043;52.406;9.690;2023-04-03T04:53:48;-2.50;99.90
64634;DHT22;51043;52.406;9.690;2023-04-03T04:56:17;-2.50;99.90
64634;DHT22;51043;52.406;9.690;2023-04-03T04:58:44;-2.60;99.90
64634;DHT22;51043;52.406;9.690;2023-04-03T05:01:11;-2.60;99.90
64634;DHT22;51043;52.406;9.690;2023-04-03T05:03:47;-2.60;99.90
64634;DHT22;51043;52.406;9.690;2023-04-03T05:06:15;-2.50;99.90
64634;DHT22;51043;52.406;9.690;2023-04-03T05:08:42;-2.50;99.90
64634;DHT22;51043;52.406;9.690;2023-04-03T05:11:09;-2.50;99.90
64634;DHT22;51043;52.406;9.690;2023-04-03T05:13:37;-2.40;99.90
64634;DHT22;51043;52.406;9.690;2023-04-03T05:16:04;-2.40;99.90
64634;DHT22;51043;52.406;9.690;2023-04-03T05:18:32;-2.40;99.90
64634;DHT22;51043;52.406;9.690;2023-04-03T05:21:03;-2.40;99.90
64634;DHT22;51043;52.406;9.690;2023-04-03T05:23:30;-2.40;99.90
64634;DHT22;51043;52.406;9.690;2023-04-03T05:25:59;-2.40;99.90
64634;DHT22;51043;52.406;9.690;2023-04-03T05:28:27;-2.30;99.90
64634;DHT22;51043;52.406;9.690;2023-04-03T05:30:58;-2.30;99.90
64634;DHT22;51043;52.406;9.690;2023-04-03T05:33:30;-2.10;99.90
64634;DHT22;51043;52.406;9.690;2023-04-03T05:36:05;-2.00;99.90
64634;DHT22;51043;52.406;9.690;2023-04-03T05:38:36;-1.90;99.90
64634;DHT22;51043;52.406;9.690;2023-04-03T05:41:03;-1.80;99.90
64634;DHT22;51043;52.406;9.690;2023-04-03T05:43:30;-1.70;99.90
64634;DHT22;51043;52.406;9.690;2023-04-03T05:45:58;-1.60;99.90
64634;DHT22;51043;52.406;9.690;2023-04-03T05:48:26;-1.60;99.90
64634;DHT22;51043;52.406;9.690;2023-04-03T05:50:53;-1.50;99.90
64634;DHT22;51043;52.406;9.690;2023-04-03T05:53:27;-1.50;99.90
64634;DHT22;51043;52.406;9.690;2023-04-03T05:55:57;-1.40;99.90
64634;DHT22;51043;52.406;9.690;2023-04-03T05:58:25;-1.30;99.90
64634;DHT22;51043;52.406;9.690;2023-04-03T06:00:52;-1.20;99.90
64634;DHT22;51043;52.406;9.690;2023-04-03T06:03:19;-1.00;99.90
64634;DHT22;51043;52.406;9.690;2023-04-03T06:05:46;-0.90;99.90
64634;DHT22;51043;52.406;9.690;2023-04-03T06:08:13;-0.70;99.90
64634;DHT22;51043;52.406;9.690;2023-04-03T06:10:41;-0.50;99.90
64634;DHT22;51043;52.406;9.690;2023-04-03T06:13:08;-0.20;99.90
64634;DHT22;51043;52.406;9.690;2023-04-03T06:15:36;0.00;99.90
64634;DHT22;51043;52.406;9.690;2023-04-03T06:18:03;0.10;99.90
64634;DHT22;51043;52.406;9.690;2023-04-03T06:20:30;0.40;99.90
64634;DHT22;51043;52.406;9.690;2023-04-03T06:22:57;0.60;99.90
64634;DHT22;51043;52.406;9.690;2023-04-03T06:25:24;0.80;99.90
64634;DHT22;51043;52.406;9.690;2023-04-03T06:27:51;1.10;99.90
64634;DHT22;51043;52.406;9.690;2023-04-03T06:30:18;1.30;99.90
64634;DHT22;51043;52.406;9.690;2023-04-03T06:32:45;1.50;99.90
64634;DHT22;51043;52.406;9.690;2023-04-03T06:35:12;1.70;99.90
64634;DHT22;51043;52.406;9.690;2023-04-03T06:37:39;1.90;99.90
64634;DHT22;51043;52.406;9.690;2023-04-03T06:40:07;2.10;99.90
64634;DHT22;51043;52.406;9.690;2023-04-03T06:42:34;2.30;99.90
64634;DHT22;51043;52.406;9.690;2023-04-03T06:45:09;2.60;99.90
64634;DHT22;51043;52.406;9.690;2023-04-03T06:47:38;2.70;99.90
64634;DHT22;51043;52.406;9.690;2023-04-03T06:50:05;2.80;99.90
64634;DHT22;51043;52.406;9.690;2023-04-03T06:52:33;3.10;99.90
64634;DHT22;51043;52.406;9.690;2023-04-03T06:54:59;3.30;99.90
64634;DHT22;51043;52.406;9.690;2023-04-03T06:57:27;3.50;99.90
64634;DHT22;51043;52.406;9.690;2023-04-03T06:59:53;3.60;99.90
64634;DHT22;51043;52.406;9.690;2023-04-03T07:02:20;3.90;99.90
64634;DHT22;51043;52.406;9.690;2023-04-03T07:04:47;4.00;99.90
64634;DHT22;51043;52.406;9.690;2023-04-03T07:07:14;4.10;99.90
64634;DHT22;51043;52.406;9.690;2023-04-03T07:09:41;4.30;99.90
64634;DHT22;51043;52.406;9.690;2023-04-03T07:12:10;4.90;99.90
64634;DHT22;51043;52.406;9.690;2023-04-03T07:14:37;5.70;99.90
64634;DHT22;51043;52.406;9.690;2023-04-03T07:17:04;6.70;99.90
64634;DHT22;51043;52.406;9.690;2023-04-03T07:19:31;7.80;99.90
64634;DHT22;51043;52.406;9.690;2023-04-03T07:21:58;8.70;99.90
64634;DHT22;51043;52.406;9.690;2023-04-03T07:24:24;9.50;99.90
64634;DHT22;51043;52.406;9.690;2023-04-03T07:26:52;10.40;97.30
64634;DHT22;51043;52.406;9.690;2023-04-03T07:29:19;10.90;96.90
64634;DHT22;51043;52.406;9.690;2023-04-03T07:31:48;11.60;93.20
64634;DHT22;51043;52.406;9.690;2023-04-03T07:34:15;12.40;85.90
64634;DHT22;51043;52.406;9.690;2023-04-03T07:36:42;13.00;75.80
64634;DHT22;51043;52.406;9.690;2023-04-03T07:39:09;13.20;69.80
64634;DHT22;51043;52.406;9.690;2023-04-03T07:41:36;13.90;68.00
64634;DHT22;51043;52.406;9.690;2023-04-03T07:44:03;14.30;60.40
64634;DHT22;51043;52.406;9.690;2023-04-03T07:46:31;14.20;61.50
64634;DHT22;51043;52.406;9.690;2023-04-03T07:48:58;14.90;59.30
64634;DHT22;51043;52.406;9.690;2023-04-03T07:51:25;15.50;58.00
64634;DHT22;51043;52.406;9.690;2023-04-03T07:53:53;16.50;55.00
64634;DHT22;51043;52.406;9.690;2023-04-03T07:56:20;17.00;49.90
64634;DHT22;51043;52.406;9.690;2023-04-03T07:58:47;17.00;50.30
64634;DHT22;51043;52.406;9.690;2023-04-03T08:01:14;16.50;47.80
64634;DHT22;51043;52.406;9.690;2023-04-03T08:03:41;16.80;47.80
64634;DHT22;51043;52.406;9.690;2023-04-03T08:06:09;16.30;47.10
64634;DHT22;51043;52.406;9.690;2023-04-03T08:08:37;15.90;45.40
64634;DHT22;51043;52.406;9.690;2023-04-03T08:11:04;15.40;46.90
64634;DHT22;51043;52.406;9.690;2023-04-03T08:13:35;15.10;47.50
64634;DHT22;51043;52.406;9.690;2023-04-03T08:16:11;14.90;49.00
64634;DHT22;51043;52.406;9.690;2023-04-03T08:18:38;14.90;49.60
64634;DHT22;51043;52.406;9.690;2023-04-03T08:21:07;15.10;49.20
64634;DHT22;51043;52.406;9.690;2023-04-03T08:23:34;16.00;49.10
64634;DHT22;51043;52.406;9.690;2023-04-03T08:28:35;16.00;47.80
64634;DHT22;51043;52.406;9.690;2023-04-03T08:31:04;16.50;48.40
64634;DHT22;51043;52.406;9.690;2023-04-03T08:33:33;16.10;46.50
64634;DHT22;51043;52.406;9.690;2023-04-03T08:36:02;15.40;47.50
64634;DHT22;51043;52.406;9.690;2023-04-03T08:38:29;15.40;48.00
64634;DHT22;51043;52.406;9.690;2023-04-03T08:41:16;15.20;47.10
64634;DHT22;51043;52.406;9.690;2023-04-03T08:43:57;15.30;46.80
64634;DHT22;51043;52.406;9.690;2023-04-03T08:46:37;15.70;46.60
64634;DHT22;51043;52.406;9.690;2023-04-03T08:49:35;16.60;44.80
64634;DHT22;51043;52.406;9.690;2023-04-03T08:52:05;16.80;43.60
64634;DHT22;51043;52.406;9.690;2023-04-03T08:54:48;16.80;43.90
64634;DHT22;51043;52.406;9.690;2023-04-03T08:57:17;17.00;43.30
64634;DHT22;51043;52.406;9.690;2023-04-03T08:59:46;16.80;43.60
64634;DHT22;51043;52.406;9.690;2023-04-03T09:02:35;15.80;43.80
64634;DHT22;51043;52.406;9.690;2023-04-03T09:05:15;15.70;45.60
64634;DHT22;51043;52.406;9.690;2023-04-03T09:07:45;15.80;43.30
64634;DHT22;51043;52.406;9.690;2023-04-03T09:10:22;16.10;43.40
64634;DHT22;51043;52.406;9.690;2023-04-03T09:12:58;17.30;42.30
64634;DHT22;51043;52.406;9.690;2023-04-03T09:15:26;18.30;39.60
64634;DHT22;51043;52.406;9.690;2023-04-03T09:18:04;17.70;39.30
64634;DHT22;51043;52.406;9.690;2023-04-03T09:23:30;18.00;40.00
64634;DHT22;51043;52.406;9.690;2023-04-03T09:26:17;17.60;38.90
64634;DHT22;51043;52.406;9.690;2023-04-03T09:28:45;18.00;38.10
64634;DHT22;51043;52.406;9.690;2023-04-03T09:31:25;16.30;39.90
64634;DHT22;51043;52.406;9.690;2023-04-03T09:33:58;14.00;41.70
64634;DHT22;51043;52.406;9.690;2023-04-03T09:36:41;12.90;45.20
64634;DHT22;51043;52.406;9.690;2023-04-03T09:41:41;13.10;46.10
64634;DHT22;51043;52.406;9.690;2023-04-03T09:44:24;14.40;44.00
64634;DHT22;51043;52.406;9.690;2023-04-03T09:46:51;15.30;41.80
64634;DHT22;51043;52.406;9.690;2023-04-03T09:49:18;13.80;41.60
64634;DHT22;51043;52.406;9.690;2023-04-03T09:51:46;13.90;45.60
64634;DHT22;51043;52.406;9.690;2023-04-03T09:54:35;14.40;43.00
64634;DHT22;51043;52.406;9.690;2023-04-03T09:57:08;14.20;42.40
64634;DHT22;51043;52.406;9.690;2023-04-03T09:59:37;13.50;42.50
64634;DHT22;51043;52.406;9.690;2023-04-03T10:02:22;12.60;45.30
64634;DHT22;51043;52.406;9.690;2023-04-03T10:04:50;12.50;45.10
64634;DHT22;51043;52.406;9.690;2023-04-03T10:07:35;12.40;45.00
64634;DHT22;51043;52.406;9.690;2023-04-03T10:10:20;12.50;45.60
64634;DHT22;51043;52.406;9.690;2023-04-03T10:13:09;13.70;45.50
64634;DHT22;51043;52.406;9.690;2023-04-03T10:15:42;14.90;41.60
64634;DHT22;51043;52.406;9.690;2023-04-03T10:18:48;16.10;39.00
64634;DHT22;51043;52.406;9.690;2023-04-03T10:21:27;15.60;37.60
64634;DHT22;51043;52.406;9.690;2023-04-03T10:24:07;14.30;41.30
64634;DHT22;51043;52.406;9.690;2023-04-03T10:26:58;14.00;41.20
64634;DHT22;51043;52.406;9.690;2023-04-03T10:35:47;11.90;42.40
64634;DHT22;51043;52.406;9.690;2023-04-03T10:41:11;10.40;43.90
64634;DHT22;51043;52.406;9.690;2023-04-03T10:46:19;12.20;44.50
64634;DHT22;51043;52.406;9.690;2023-04-03T10:55:02;16.70;37.80
64634;DHT22;51043;52.406;9.690;2023-04-03T10:57:26;18.20;36.50
64634;DHT22;51043;52.406;9.690;2023-04-03T11:00:02;19.60;34.00
64634;DHT22;51043;52.406;9.690;2023-04-03T11:02:30;20.20;35.00
64634;DHT22;51043;52.406;9.690;2023-04-03T11:05:04;19.60;32.30
64634;DHT22;51043;52.406;9.690;2023-04-03T11:07:42;18.20;33.20
64634;DHT22;51043;52.406;9.690;2023-04-03T11:10:14;16.80;35.50
64634;DHT22;51043;52.406;9.690;2023-04-03T11:13:28;15.60;36.60
64634;DHT22;51043;52.406;9.690;2023-04-03T11:15:34;13.90;39.20
64634;DHT22;51043;52.406;9.690;2023-04-03T11:18:15;12.80;41.00
64634;DHT22;51043;52.406;9.690;2023-04-03T11:20:57;11.90;42.30
64634;DHT22;51043;52.406;9.690;2023-04-03T11:23:26;11.40;44.00
64634;DHT22;51043;52.406;9.690;2023-04-03T11:26:07;11.00;45.80
64634;DHT22;51043;52.406;9.690;2023-04-03T11:28:36;10.40;45.30
64634;DHT22;51043;52.406;9.690;2023-04-03T11:36:58;9.50;47.40
64634;DHT22;51043;52.406;9.690;2023-04-03T11:39:30;9.40;48.10
64634;DHT22;51043;52.406;9.690;2023-04-03T11:42:37;9.40;48.70
64634;DHT22;51043;52.406;9.690;2023-04-03T11:45:24;9.30;49.60
64634;DHT22;51043;52.406;9.690;2023-04-03T12:05:54;16.90;37.70
64634;DHT22;51043;52.406;9.690;2023-04-03T12:08:27;18.40;34.00
64634;DHT22;51043;52.406;9.690;2023-04-03T12:16:25;17.80;35.40
64634;DHT22;51043;52.406;9.690;2023-04-03T12:26:47;13.80;40.40
64634;DHT22;51043;52.406;9.690;2023-04-03T12:29:20;14.60;38.00
64634;DHT22;51043;52.406;9.690;2023-04-03T12:51:16;13.50;39.20
64634;DHT22;51043;52.406;9.690;2023-04-03T12:53:44;13.60;39.20
64634;DHT22;51043;52.406;9.690;2023-04-03T12:58:51;12.20;39.50
64634;DHT22;51043;52.406;9.690;2023-04-03T13:01:24;11.70;40.50
64634;DHT22;51043;52.406;9.690;2023-04-03T13:03:54;11.20;41.40
64634;DHT22;51043;52.406;9.690;2023-04-03T13:06:24;11.10;42.00
64634;DHT22;51043;52.406;9.690;2023-04-03T13:08:57;11.10;42.20
64634;DHT22;51043;52.406;9.690;2023-04-03T13:11:30;11.60;42.40
64634;DHT22;51043;52.406;9.690;2023-04-03T13:14:05;11.60;42.60
64634;DHT22;51043;52.406;9.690;2023-04-03T13:16:33;11.20;42.20
64634;DHT22;51043;52.406;9.690;2023-04-03T13:19:00;10.50;42.80
64634;DHT22;51043;52.406;9.690;2023-04-03T13:21:32;10.10;44.20
64634;DHT22;51043;52.406;9.690;2023-04-03T13:24:01;9.80;44.70
64634;DHT22;51043;52.406;9.690;2023-04-03T13:26:38;9.50;45.90
64634;DHT22;51043;52.406;9.690;2023-04-03T13:29:07;9.60;47.70
64634;DHT22;51043;52.406;9.690;2023-04-03T13:31:38;9.70;47.20
64634;DHT22;51043;52.406;9.690;2023-04-03T13:34:10;9.80;47.20
64634;DHT22;51043;52.406;9.690;2023-04-03T13:36:41;9.60;47.30
64634;DHT22;51043;52.406;9.690;2023-04-03T13:41:46;9.40;45.80
64634;DHT22;51043;52.406;9.690;2023-04-03T13:46:51;9.10;47.50
64634;DHT22;51043;52.406;9.690;2023-04-03T13:49:39;9.10;48.60
64634;DHT22;51043;52.406;9.690;2023-04-03T13:52:29;9.10;48.40
64634;DHT22;51043;52.406;9.690;2023-04-03T13:55:00;9.00;48.80
64634;DHT22;51043;52.406;9.690;2023-04-03T13:57:28;8.80;49.10
64634;DHT22;51043;52.406;9.690;2023-04-03T13:59:55;8.70;48.80
64634;DHT22;51043;52.406;9.690;2023-04-03T14:02:30;8.80;48.40
64634;DHT22;51043;52.406;9.690;2023-04-03T14:04:59;8.70;47.20
64634;DHT22;51043;52.406;9.690;2023-04-03T14:07:29;8.70;47.60
64634;DHT22;51043;52.406;9.690;2023-04-03T14:09:57;8.70;48.40
64634;DHT22;51043;52.406;9.690;2023-04-03T14:12:35;8.70;48.00
64634;DHT22;51043;52.406;9.690;2023-04-03T14:15:07;8.80;48.20
64634;DHT22;51043;52.406;9.690;2023-04-03T14:17:38;8.80;49.40
64634;DHT22;51043;52.406;9.690;2023-04-03T14:20:06;8.70;47.30
64634;DHT22;51043;52.406;9.690;2023-04-03T14:22:33;8.70;48.50
64634;DHT22;51043;52.406;9.690;2023-04-03T14:25:01;8.80;48.30
64634;DHT22;51043;52.406;9.690;2023-04-03T14:27:38;8.90;47.60
64634;DHT22;51043;52.406;9.690;2023-04-03T14:30:09;9.10;47.80
64634;DHT22;51043;52.406;9.690;2023-04-03T14:32:39;9.50;48.30
64634;DHT22;51043;52.406;9.690;2023-04-03T14:35:06;9.70;47.70
64634;DHT22;51043;52.406;9.690;2023-04-03T14:37:33;9.80;47.50
64634;DHT22;51043;52.406;9.690;2023-04-03T14:40:01;9.80;48.60
64634;DHT22;51043;52.406;9.690;2023-04-03T14:42:33;9.60;47.90
64634;DHT22;51043;52.406;9.690;2023-04-03T14:45:06;9.10;48.00
64634;DHT22;51043;52.406;9.690;2023-04-03T14:47:39;8.90;47.90
64634;DHT22;51043;52.406;9.690;2023-04-03T14:50:11;8.50;48.70
64634;DHT22;51043;52.406;9.690;2023-04-03T14:52:39;8.20;49.70
64634;DHT22;51043;52.406;9.690;2023-04-03T14:55:08;8.10;50.40
64634;DHT22;51043;52.406;9.690;2023-04-03T14:57:35;8.10;49.70
64634;DHT22;51043;52.406;9.690;2023-04-03T15:00:03;8.10;49.90
64634;DHT22;51043;52.406;9.690;2023-04-03T15:02:38;8.20;50.30
64634;DHT22;51043;52.406;9.690;2023-04-03T15:05:08;8.30;49.90
64634;DHT22;51043;52.406;9.690;2023-04-03T15:07:38;8.50;50.50
64634;DHT22;51043;52.406;9.690;2023-04-03T15:10:26;8.80;49.30
64634;DHT22;51043;52.406;9.690;2023-04-03T15:12:54;8.80;49.00
64634;DHT22;51043;52.406;9.690;2023-04-03T15:15:22;8.80;48.70
64634;DHT22;51043;52.406;9.690;2023-04-03T15:17:54;8.70;48.80
64634;DHT22;51043;52.406;9.690;2023-04-03T15:20:27;8.50;49.60
64634;DHT22;51043;52.406;9.690;2023-04-03T15:22:54;8.30;49.90
64634;DHT22;51043;52.406;9.690;2023-04-03T15:25:23;8.10;51.60
64634;DHT22;51043;52.406;9.690;2023-04-03T15:27:50;7.90;51.90
64634;DHT22;51043;52.406;9.690;2023-04-03T15:30:18;7.90;51.80
64634;DHT22;51043;52.406;9.690;2023-04-03T15:32:46;7.70;50.70
64634;DHT22;51043;52.406;9.690;2023-04-03T15:35:13;7.70;51.50
64634;DHT22;51043;52.406;9.690;2023-04-03T15:37:40;7.50;51.90
64634;DHT22;51043;52.406;9.690;2023-04-03T15:40:07;7.40;51.60
64634;DHT22;51043;52.406;9.690;2023-04-03T15:42:34;7.30;52.70
64634;DHT22;51043;52.406;9.690;2023-04-03T15:45:01;7.20;52.60
64634;DHT22;51043;52.406;9.690;2023-04-03T15:47:29;7.20;53.40
64634;DHT22;51043;52.406;9.690;2023-04-03T15:49:56;7.20;53.00
64634;DHT22;51043;52.406;9.690;2023-04-03T15:52:23;7.20;52.20
64634;DHT22;51043;52.406;9.690;2023-04-03T15:54:49;7.40;52.50
64634;DHT22;51043;52.406;9.690;2023-04-03T15:57:16;7.70;53.10
64634;DHT22;51043;52.406;9.690;2023-04-03T15:59:43;7.90;53.20
64634;DHT22;51043;52.406;9.690;2023-04-03T16:02:11;7.80;52.90
64634;DHT22;51043;52.406;9.690;2023-04-03T16:04:39;7.80;54.30
64634;DHT22;51043;52.406;9.690;2023-04-03T16:07:06;7.60;52.00
64634;DHT22;51043;52.406;9.690;2023-04-03T16:09:34;7.50;53.10
64634;DHT22;51043;52.406;9.690;2023-04-03T16:12:04;7.20;53.30
64634;DHT22;51043;52.406;9.690;2023-04-03T16:14:31;7.00;54.20
64634;DHT22;51043;52.406;9.690;2023-04-03T16:16:58;6.80;54.20
64634;DHT22;51043;52.406;9.690;2023-04-03T16:19:25;6.70;55.50
64634;DHT22;51043;52.406;9.690;2023-04-03T16:21:54;6.50;56.10
64634;DHT22;51043;52.406;9.690;2023-04-03T16:24:21;6.60;55.80
64634;DHT22;51043;52.406;9.690;2023-04-03T16:26:48;6.60;56.70
64634;DHT22;51043;52.406;9.690;2023-04-03T16:29:15;6.70;56.40
64634;DHT22;51043;52.406;9.690;2023-04-03T16:31:42;6.90;57.10
64634;DHT22;51043;52.406;9.690;2023-04-03T16:34:09;7.20;56.00
64634;DHT22;51043;52.406;9.690;2023-04-03T16:36:36;7.40;53.60
64634;DHT22;51043;52.406;9.690;2023-04-03T16:39:04;7.60;53.30
64634;DHT22;51043;52.406;9.690;2023-04-03T16:41:30;7.60;52.90
64634;DHT22;51043;52.406;9.690;2023-04-03T16:43:57;7.50;52.70
64634;DHT22;51043;52.406;9.690;2023-04-03T16:46:24;7.30;53.00
64634;DHT22;51043;52.406;9.690;2023-04-03T16:48:51;7.10;53.00
64634;DHT22;51043;52.406;9.690;2023-04-03T16:51:17;7.00;53.50
64634;DHT22;51043;52.406;9.690;2023-04-03T16:53:44;6.80;54.10
64634;DHT22;51043;52.406;9.690;2023-04-03T16:56:11;6.70;54.40
64634;DHT22;51043;52.406;9.690;2023-04-03T16:58:38;6.60;55.20
64634;DHT22;51043;52.406;9.690;2023-04-03T17:01:16;6.50;56.10
64634;DHT22;51043;52.406;9.690;2023-04-03T17:03:43;6.40;56.30
64634;DHT22;51043;52.406;9.690;2023-04-03T17:06:12;6.40;56.10
64634;DHT22;51043;52.406;9.690;2023-04-03T17:08:43;6.40;56.30
64634;DHT22;51043;52.406;9.690;2023-04-03T17:11:25;6.40;57.00
64634;DHT22;51043;52.406;9.690;2023-04-03T17:13:52;6.50;57.70
64634;DHT22;51043;52.406;9.690;2023-04-03T17:16:19;6.60;57.10
64634;DHT22;51043;52.406;9.690;2023-04-03T17:18:47;6.70;56.90
64634;DHT22;51043;52.406;9.690;2023-04-03T17:21:14;6.70;57.50
64634;DHT22;51043;52.406;9.690;2023-04-03T17:23:44;6.70;57.30
64634;DHT22;51043;52.406;9.690;2023-04-03T17:26:12;6.60;57.90
64634;DHT22;51043;52.406;9.690;2023-04-03T17:28:39;6.50;57.00
64634;DHT22;51043;52.406;9.690;2023-04-03T17:31:07;6.50;57.30
64634;DHT22;51043;52.406;9.690;2023-04-03T17:33:34;6.40;57.50